createdAt,value
2023-04-29T00:01:39.741Z,10.88
2023-04-29T00:04:07.179Z,12.68
2023-04-29T00:06:34.621Z,11.38
2023-04-29T00:09:01.745Z,10.30
2023-04-29T00:11:29.009Z,10.30
2023-04-29T00:13:56.262Z,10.65
2023-04-29T00:16:23.560Z,10.25
2023-04-29T00:18:51.173Z,11.60
2023-04-29T00:21:18.366Z,9.90
2023-04-29T00:23:46.098Z,11.25
2023-04-29T00:26:13.377Z,9.90
2023-04-29T00:28:44.765Z,12.30
2023-04-29T00:31:12.061Z,10.27
2023-04-29T00:33:40.815Z,11.48
2023-04-29T00:36:08.650Z,10.45
2023-04-29T00:38:35.841Z,9.52
2023-04-29T00:41:03.490Z,12.73
2023-04-29T00:43:30.859Z,10.25
2023-04-29T00:45:58.044Z,9.45
2023-04-29T00:48:26.728Z,9.48
2023-04-29T00:50:53.871Z,11.18
2023-04-29T00:53:23.230Z,13.02
2023-04-29T00:55:51.909Z,12.55
2023-04-29T00:58:20.129Z,11.82
2023-04-29T01:00:48.349Z,11.70
2023-04-29T01:03:16.187Z,10.82
2023-04-29T01:05:47.580Z,11.15
2023-04-29T01:08:29.834Z,13.23
2023-04-29T01:11:05.715Z,10.70
2023-04-29T01:13:46.152Z,12.60
2023-04-29T01:16:51.833Z,10.25
2023-04-29T01:19:46.089Z,10.70
2023-04-29T01:22:17.889Z,12.00
2023-04-29T01:24:45.191Z,11.65
2023-04-29T01:27:27.780Z,10.73
2023-04-29T01:30:22.524Z,12.20
2023-04-29T01:32:58.261Z,11.90
2023-04-29T01:35:34.684Z,10.63
2023-04-29T01:38:23.610Z,12.02
2023-04-29T01:41:04.118Z,11.02
2023-04-29T01:43:34.311Z,9.88
2023-04-29T01:46:11.146Z,10.93
2023-04-29T01:48:38.528Z,11.10
2023-04-29T01:51:07.222Z,10.80
2023-04-29T01:53:34.559Z,10.45
2023-04-29T01:56:01.786Z,9.85
2023-04-29T01:58:37.280Z,10.88
2023-04-29T02:01:26.638Z,10.45
2023-04-29T02:03:54.292Z,11.65
2023-04-29T02:06:22.122Z,8.65
2023-04-29T02:08:54.521Z,11.75
2023-04-29T02:11:21.631Z,10.02
2023-04-29T02:13:48.862Z,11.30
2023-04-29T02:16:16.961Z,11.07
2023-04-29T02:18:53.745Z,11.23
2023-04-29T02:21:22.038Z,12.05
2023-04-29T02:23:49.233Z,11.85
2023-04-29T02:26:16.382Z,12.15
2023-04-29T02:28:44.359Z,11.15
2023-04-29T02:31:11.499Z,12.13
2023-04-29T02:33:38.734Z,11.85
2023-04-29T02:36:06.104Z,13.80
2023-04-29T02:38:33.294Z,11.15
2023-04-29T02:41:00.464Z,12.77
2023-04-29T02:43:30.938Z,12.05
2023-04-29T02:46:00.514Z,11.03
2023-04-29T02:48:27.886Z,12.43
2023-04-29T02:50:54.961Z,12.07
2023-04-29T02:53:22.200Z,11.50
2023-04-29T02:55:49.523Z,11.80
2023-04-29T02:58:16.706Z,11.48
2023-04-29T03:00:43.866Z,12.77
2023-04-29T03:03:11.158Z,13.15
2023-04-29T03:05:38.595Z,11.52
2023-04-29T03:08:05.755Z,11.18
2023-04-29T03:10:33.590Z,11.18
2023-04-29T03:13:00.744Z,11.18
2023-04-29T03:15:27.884Z,10.93
2023-04-29T03:17:55.064Z,11.15
2023-04-29T03:20:22.337Z,9.82
2023-04-29T03:22:49.554Z,11.68
2023-04-29T03:25:16.719Z,11.20
2023-04-29T03:27:43.900Z,12.93
2023-04-29T03:30:11.683Z,11.13
2023-04-29T03:32:45.418Z,12.55
2023-04-29T03:35:15.569Z,11.52
2023-04-29T03:38:01.743Z,12.95
2023-04-29T03:40:31.572Z,12.45
2023-04-29T03:43:00.885Z,12.75
2023-04-29T03:45:28.024Z,11.13
2023-04-29T03:47:55.370Z,10.95
2023-04-29T03:50:23.865Z,10.75
2023-04-29T03:52:51.021Z,13.40
2023-04-29T03:55:19.549Z,11.80
2023-04-29T03:57:47.588Z,11.23
2023-04-29T04:00:17.149Z,11.57
2023-04-29T04:02:46.954Z,11.50
2023-04-29T04:05:15.055Z,13.10
2023-04-29T04:10:32.603Z,12.23
2023-04-29T04:13:02.456Z,12.43
2023-04-29T04:15:29.642Z,12.38
2023-04-29T04:17:58.063Z,13.25
2023-04-29T04:20:25.380Z,13.30
2023-04-29T04:22:54.763Z,11.73
2023-04-29T04:25:28.663Z,12.27
2023-04-29T04:28:01.876Z,10.48
2023-04-29T04:30:48.836Z,11.30
2023-04-29T04:33:16.701Z,12.25
2023-04-29T04:35:46.478Z,12.27
2023-04-29T04:38:13.767Z,13.43
2023-04-29T04:40:44.740Z,10.98
2023-04-29T04:43:28.255Z,9.50
2023-04-29T04:45:55.546Z,10.68
2023-04-29T04:48:22.694Z,10.77
2023-04-29T04:50:51.280Z,10.23
2023-04-29T04:53:18.449Z,10.73
2023-04-29T04:56:01.982Z,11.15
2023-04-29T04:58:32.638Z,11.57
2023-04-29T05:01:00.920Z,10.70
2023-04-29T05:03:28.461Z,10.63
2023-04-29T05:05:56.716Z,10.15
2023-04-29T05:08:24.473Z,12.43
2023-04-29T05:10:54.295Z,11.77
2023-04-29T05:13:22.189Z,14.75
2023-04-29T05:15:49.590Z,11.43
2023-04-29T05:18:21.415Z,13.93
2023-04-29T05:20:50.979Z,13.82
2023-04-29T05:23:18.066Z,14.80
2023-04-29T05:25:46.846Z,14.63
2023-04-29T05:28:14.148Z,13.02
2023-04-29T05:30:42.296Z,12.95
2023-04-29T05:33:09.907Z,10.93
2023-04-29T05:35:37.316Z,12.57
2023-04-29T05:38:04.617Z,12.82
2023-04-29T05:40:44.708Z,14.40
2023-04-29T05:43:20.939Z,14.73
2023-04-29T05:45:48.806Z,13.82
2023-04-29T05:48:16.381Z,13.20
2023-04-29T05:50:45.613Z,12.35
2023-04-29T05:53:12.893Z,12.05
2023-04-29T05:55:44.748Z,13.23
2023-04-29T05:58:13.280Z,13.60
2023-04-29T06:00:40.945Z,13.60
2023-04-29T06:03:15.187Z,13.80
2023-04-29T06:05:42.884Z,13.95
2023-04-29T06:08:29.921Z,13.77
2023-04-29T06:11:06.207Z,12.82
2023-04-29T06:13:33.529Z,12.77
2023-04-29T06:16:00.781Z,13.52
2023-04-29T06:18:32.339Z,13.85
2023-04-29T06:20:59.988Z,13.95
2023-04-29T06:23:27.199Z,13.77
2023-04-29T06:25:54.849Z,13.10
2023-04-29T06:28:22.537Z,15.38
2023-04-29T06:30:50.460Z,15.43
2023-04-29T06:33:18.929Z,15.07
2023-04-29T06:35:46.207Z,13.52
2023-04-29T06:38:32.110Z,13.90
2023-04-29T06:41:22.120Z,14.48
2023-04-29T06:43:59.867Z,12.18
2023-04-29T06:46:45.734Z,11.75
2023-04-29T06:49:19.705Z,12.38
2023-04-29T06:51:49.257Z,11.07
2023-04-29T06:54:16.942Z,11.38
2023-04-29T06:56:44.140Z,11.68
2023-04-29T06:59:12.651Z,12.60
2023-04-29T07:01:42.512Z,12.52
2023-04-29T07:04:12.688Z,11.02
2023-04-29T07:06:39.932Z,9.75
2023-04-29T07:09:07.519Z,11.77
2023-04-29T07:11:37.473Z,11.95
2023-04-29T07:14:04.834Z,11.70
2023-04-29T07:16:32.020Z,11.30
2023-04-29T07:19:00.135Z,9.73
2023-04-29T07:21:28.294Z,10.25
2023-04-29T07:23:55.740Z,9.35
2023-04-29T07:26:24.010Z,9.85
2023-04-29T07:28:51.200Z,10.00
2023-04-29T07:31:18.652Z,9.52
2023-04-29T07:33:47.394Z,10.18
2023-04-29T07:36:14.946Z,10.23
2023-04-29T07:38:42.259Z,12.45
2023-04-29T07:41:09.516Z,10.77
2023-04-29T07:43:37.047Z,8.98
2023-04-29T07:46:05.154Z,9.32
2023-04-29T07:48:38.388Z,9.32
2023-04-29T07:51:06.598Z,9.93
2023-04-29T07:53:33.917Z,9.07
2023-04-29T07:56:06.368Z,9.27
2023-04-29T07:58:33.841Z,11.10
2023-04-29T08:01:07.886Z,9.43
2023-04-29T08:03:35.941Z,9.70
2023-04-29T08:06:05.632Z,9.75
2023-04-29T08:08:34.792Z,9.73
2023-04-29T08:11:02.100Z,7.70
2023-04-29T08:13:29.387Z,10.43
2023-04-29T08:15:56.853Z,8.18
2023-04-29T08:18:24.189Z,7.72
2023-04-29T08:20:51.704Z,7.30
2023-04-29T08:23:18.983Z,7.30
2023-04-29T08:25:46.353Z,7.82
2023-04-29T08:28:13.802Z,7.78
2023-04-29T08:30:41.664Z,7.15
2023-04-29T08:33:09.132Z,7.32
2023-04-29T08:35:39.586Z,7.78
2023-04-29T08:38:07.509Z,8.70
2023-04-29T08:40:48.016Z,7.05
2023-04-29T08:43:15.713Z,6.75
2023-04-29T08:45:43.627Z,6.95
2023-04-29T08:48:11.116Z,7.35
2023-04-29T08:50:40.719Z,6.78
2023-04-29T08:53:12.298Z,7.47
2023-04-29T08:55:47.154Z,8.32
2023-04-29T08:58:15.744Z,6.57
2023-04-29T09:00:43.952Z,6.20
2023-04-29T09:03:30.163Z,7.10
2023-04-29T09:06:00.813Z,7.55
2023-04-29T09:08:28.353Z,6.00
2023-04-29T09:10:56.582Z,5.70
2023-04-29T09:13:28.820Z,5.28
2023-04-29T09:18:46.614Z,5.15
2023-04-29T09:21:21.754Z,4.90
2023-04-29T09:23:54.553Z,5.30
2023-04-29T09:26:22.841Z,4.88
2023-04-29T09:29:16.558Z,6.00
2023-04-29T09:31:43.937Z,5.32
2023-04-29T09:34:12.072Z,6.80
2023-04-29T09:36:49.155Z,5.03
2023-04-29T09:39:23.244Z,4.85
2023-04-29T09:41:53.088Z,5.40
2023-04-29T09:44:32.901Z,4.15
2023-04-29T09:47:05.993Z,5.18
2023-04-29T09:49:45.451Z,5.22
2023-04-29T09:52:15.093Z,5.18
2023-04-29T09:54:43.465Z,5.68
2023-04-29T09:57:18.925Z,5.15
2023-04-29T09:59:46.048Z,7.13
2023-04-29T10:02:18.786Z,5.93
2023-04-29T10:04:48.434Z,4.18
2023-04-29T10:07:17.674Z,5.72
2023-04-29T10:09:47.721Z,5.32
2023-04-29T10:12:18.282Z,5.00
2023-04-29T10:14:55.203Z,4.43
2023-04-29T10:17:41.659Z,5.22
2023-04-29T10:20:09.540Z,4.78
2023-04-29T10:22:48.047Z,4.53
2023-04-29T10:25:23.137Z,4.97
2023-04-29T10:27:53.419Z,4.72
2023-04-29T10:30:22.050Z,5.35
2023-04-29T10:32:51.944Z,5.95
2023-04-29T10:35:23.766Z,4.93
2023-04-29T10:37:51.677Z,4.50
2023-04-29T10:40:21.626Z,3.92
2023-04-29T10:42:53.485Z,5.13
2023-04-29T10:45:23.083Z,4.97
2023-04-29T10:48:11.939Z,4.57
2023-04-29T10:50:48.197Z,4.75
2023-04-29T10:53:20.141Z,5.43
2023-04-29T10:55:48.914Z,5.03
2023-04-29T10:58:37.320Z,5.50
2023-04-29T11:01:05.569Z,6.28
2023-04-29T11:03:59.538Z,5.75
2023-04-29T11:06:41.531Z,6.07
2023-04-29T11:09:22.352Z,5.22
2023-04-29T11:11:55.372Z,5.35
2023-04-29T11:14:38.843Z,6.97
2023-04-29T11:17:19.061Z,6.50
2023-04-29T11:19:52.933Z,4.85
2023-04-29T11:22:24.053Z,5.45
2023-04-29T11:25:06.327Z,4.78
2023-04-29T11:27:38.924Z,4.22
2023-04-29T11:30:08.301Z,4.03
2023-04-29T11:32:40.235Z,3.65
2023-04-29T11:35:15.627Z,4.13
2023-04-29T11:37:45.473Z,4.57
2023-04-29T11:40:13.591Z,5.70
2023-04-29T11:42:49.358Z,5.72
2023-04-29T11:45:20.196Z,5.70
2023-04-29T11:47:48.936Z,5.00
2023-04-29T11:50:19.684Z,4.15
2023-04-29T11:52:50.370Z,4.10
2023-04-29T11:55:19.351Z,3.80
2023-04-29T11:57:51.218Z,3.97
2023-04-29T12:00:18.822Z,3.50
2023-04-29T12:02:47.713Z,3.63
2023-04-29T12:05:17.538Z,4.82
2023-04-29T12:07:45.144Z,3.75
2023-04-29T12:10:12.542Z,3.80
2023-04-29T12:12:47.421Z,5.15
2023-04-29T12:15:15.165Z,3.63
2023-04-29T12:17:43.754Z,3.50
2023-04-29T12:20:12.306Z,4.57
2023-04-29T12:22:39.964Z,4.72
2023-04-29T12:25:08.095Z,3.72
2023-04-29T12:27:36.934Z,3.47
2023-04-29T12:30:09.764Z,3.80
2023-04-29T12:32:38.438Z,3.88
2023-04-29T12:35:06.184Z,4.35
2023-04-29T12:37:34.181Z,4.03
2023-04-29T12:40:01.522Z,4.47
2023-04-29T12:42:34.917Z,4.72
2023-04-29T12:45:02.120Z,3.75
2023-04-29T12:47:37.193Z,3.95
2023-04-29T12:50:06.991Z,2.97
2023-04-29T12:52:36.462Z,3.65
2023-04-29T12:55:05.027Z,3.10
2023-04-29T12:57:32.373Z,3.10
2023-04-29T12:59:59.870Z,2.80
2023-04-29T13:02:27.697Z,3.70
2023-04-29T13:04:55.305Z,4.72
2023-04-29T13:07:22.731Z,3.28
2023-04-29T13:09:50.227Z,3.17
2023-04-29T13:12:17.936Z,2.90
2023-04-29T13:14:45.276Z,3.58
2023-04-29T13:17:12.906Z,3.95
2023-04-29T13:19:51.349Z,3.10
2023-04-29T13:22:19.745Z,2.63
2023-04-29T13:24:47.091Z,3.20
2023-04-29T13:27:14.244Z,2.70
2023-04-29T13:29:41.392Z,3.45
2023-04-29T13:32:08.919Z,2.70
2023-04-29T13:34:36.244Z,3.53
2023-04-29T13:37:03.657Z,4.38
2023-04-29T13:39:31.658Z,4.80
2023-04-29T13:41:59.670Z,5.57
2023-04-29T13:44:34.241Z,5.53
2023-04-29T13:47:13.833Z,5.70
2023-04-29T13:50:22.260Z,5.03
2023-04-29T13:53:09.998Z,5.32
2023-04-29T14:00:45.417Z,4.38
2023-04-29T14:03:07.790Z,4.53
2023-04-29T14:05:35.753Z,5.75
2023-04-29T14:08:03.085Z,5.68
2023-04-29T14:10:30.516Z,5.10
2023-04-29T14:12:57.646Z,5.97
2023-04-29T14:15:24.785Z,4.75
2023-04-29T14:17:52.396Z,5.60
2023-04-29T14:20:19.621Z,5.15
2023-04-29T14:22:46.772Z,4.97
2023-04-29T14:25:14.149Z,5.18
2023-04-29T14:27:41.622Z,6.45
2023-04-29T14:30:09.398Z,5.10
2023-04-29T14:32:36.482Z,4.82
2023-04-29T14:35:03.715Z,4.45
2023-04-29T14:37:30.937Z,5.80
2023-04-29T14:39:58.186Z,6.13
2023-04-29T14:42:25.454Z,4.03
2023-04-29T14:44:54.628Z,4.78
2023-04-29T14:47:22.128Z,4.72
2023-04-29T14:49:49.282Z,4.20
2023-04-29T14:52:16.641Z,4.72
2023-04-29T14:54:43.782Z,4.65
2023-04-29T14:57:10.961Z,4.47
2023-04-29T14:59:38.113Z,4.13
2023-04-29T15:02:05.490Z,5.32
2023-04-29T15:04:32.710Z,4.95
2023-04-29T15:07:00.008Z,4.65
2023-04-29T15:09:27.318Z,6.05
2023-04-29T15:11:54.457Z,4.80
2023-04-29T15:14:21.768Z,4.80
2023-04-29T15:16:49.376Z,4.50
2023-04-29T15:19:16.813Z,3.78
2023-04-29T15:21:43.892Z,5.38
2023-04-29T15:24:11.095Z,4.22
2023-04-29T15:26:38.268Z,3.70
2023-04-29T15:29:05.518Z,5.13
2023-04-29T15:31:32.692Z,5.43
2023-04-29T15:33:59.872Z,4.75
2023-04-29T15:36:30.347Z,4.63
2023-04-29T15:38:58.721Z,4.55
2023-04-29T15:41:26.753Z,4.35
2023-04-29T15:43:54.908Z,3.90
2023-04-29T15:46:22.311Z,4.90
2023-04-29T15:48:49.460Z,4.78
2023-04-29T15:51:16.842Z,4.10
2023-04-29T15:53:44.644Z,4.20
2023-04-29T15:56:12.078Z,3.78
2023-04-29T15:58:39.455Z,4.38
2023-04-29T16:01:06.792Z,5.78
2023-04-29T16:03:34.324Z,3.58
2023-04-29T16:06:01.556Z,4.05
2023-04-29T16:08:28.795Z,3.45
2023-04-29T16:10:56.117Z,4.15
2023-04-29T16:13:23.260Z,4.50
2023-04-29T16:15:50.450Z,4.35
2023-04-29T16:18:17.965Z,4.57
2023-04-29T16:20:45.613Z,4.00
2023-04-29T16:23:12.802Z,4.05
2023-04-29T16:25:43.124Z,4.70
2023-04-29T16:28:10.423Z,4.38
2023-04-29T16:30:37.630Z,4.00
2023-04-29T16:33:04.804Z,4.25
2023-04-29T16:35:32.020Z,3.58
2023-04-29T16:37:59.172Z,3.90
2023-04-29T16:40:26.458Z,3.15
2023-04-29T16:42:54.320Z,3.40
2023-04-29T16:45:23.704Z,4.00
2023-04-29T16:47:51.442Z,3.75
2023-04-29T16:50:18.949Z,5.03
2023-04-29T16:52:46.169Z,3.70
2023-04-29T16:55:13.508Z,4.35
2023-04-29T16:57:40.659Z,4.03
2023-04-29T17:00:12.149Z,3.80
2023-04-29T17:02:43.119Z,4.53
2023-04-29T17:05:11.070Z,5.47
2023-04-29T17:07:38.735Z,3.90
2023-04-29T17:10:07.263Z,3.55
2023-04-29T17:12:34.686Z,3.67
2023-04-29T17:15:02.012Z,4.35
2023-04-29T17:17:29.321Z,3.35
2023-04-29T17:19:56.918Z,4.10
2023-04-29T17:22:24.484Z,4.43
2023-04-29T17:24:52.179Z,4.28
2023-04-29T17:27:22.539Z,4.43
2023-04-29T17:29:50.811Z,3.95
2023-04-29T17:32:17.880Z,4.88
2023-04-29T17:34:45.025Z,4.60
2023-04-29T17:37:12.301Z,4.78
2023-04-29T17:39:39.542Z,4.82
2023-04-29T17:42:06.713Z,4.97
2023-04-29T17:44:33.982Z,4.93
2023-04-29T17:47:01.222Z,5.07
2023-04-29T17:49:28.327Z,4.53
2023-04-29T17:51:55.782Z,4.85
2023-04-29T17:54:22.844Z,4.88
2023-04-29T17:56:49.943Z,5.32
2023-04-29T17:59:17.059Z,4.18
2023-04-29T18:01:44.245Z,4.55
2023-04-29T18:04:12.482Z,3.75
2023-04-29T18:06:39.892Z,4.63
2023-04-29T18:09:07.202Z,5.35
2023-04-29T18:11:34.319Z,4.80
2023-04-29T18:14:01.559Z,4.60
2023-04-29T18:16:28.956Z,4.15
2023-04-29T18:18:57.147Z,3.53
2023-04-29T18:21:25.902Z,4.97
2023-04-29T18:23:53.472Z,3.97
2023-04-29T18:26:20.984Z,4.57
2023-04-29T18:28:49.026Z,3.53
2023-04-29T18:31:16.747Z,4.45
2023-04-29T18:33:44.101Z,4.43
2023-04-29T18:36:11.782Z,4.72
2023-04-29T18:38:39.068Z,4.53
2023-04-29T18:41:08.546Z,4.53
2023-04-29T18:43:36.728Z,5.00
2023-04-29T18:46:03.953Z,6.05
2023-04-29T18:48:31.543Z,5.50
2023-04-29T18:51:04.324Z,5.00
2023-04-29T18:53:31.882Z,6.20
2023-04-29T18:55:59.056Z,5.03
2023-04-29T18:58:27.295Z,4.80
2023-04-29T19:00:54.796Z,5.40
2023-04-29T19:03:22.440Z,4.90
2023-04-29T19:05:49.746Z,4.97
2023-04-29T19:08:17.019Z,4.25
2023-04-29T19:10:45.076Z,5.50
2023-04-29T19:13:12.744Z,5.90
2023-04-29T19:15:40.046Z,6.47
2023-04-29T19:18:07.519Z,5.13
2023-04-29T19:20:34.856Z,4.93
2023-04-29T19:23:01.991Z,5.03
2023-04-29T19:25:29.122Z,5.88
2023-04-29T19:27:56.288Z,5.45
2023-04-29T19:30:23.445Z,6.00
2023-04-29T19:32:50.768Z,5.60
2023-04-29T19:35:18.186Z,5.18
2023-04-29T19:37:45.401Z,5.68
2023-04-29T19:40:12.630Z,5.50
2023-04-29T19:42:40.089Z,5.13
2023-04-29T19:45:08.172Z,5.93
2023-04-29T19:47:35.556Z,5.07
2023-04-29T19:50:02.904Z,5.63
2023-04-29T19:52:30.119Z,5.57
2023-04-29T19:54:57.624Z,5.82
2023-04-29T19:57:25.110Z,6.20
2023-04-29T19:59:52.721Z,4.85
2023-04-29T20:02:20.066Z,4.95
2023-04-29T20:04:48.276Z,4.38
2023-04-29T20:07:15.548Z,5.53
2023-04-29T20:09:45.042Z,6.18
2023-04-29T20:12:12.370Z,4.47
2023-04-29T20:14:39.531Z,5.18
2023-04-29T20:17:06.720Z,5.88
2023-04-29T20:19:34.877Z,5.53
2023-04-29T20:22:02.071Z,4.53
2023-04-29T20:24:29.316Z,5.53
2023-04-29T20:26:56.541Z,5.30
2023-04-29T20:29:25.068Z,4.85
2023-04-29T20:31:52.374Z,5.25
2023-04-29T20:34:20.101Z,5.72
2023-04-29T20:36:48.108Z,5.63
2023-04-29T20:39:15.321Z,5.75
2023-04-29T20:41:42.743Z,5.93
2023-04-29T20:44:10.227Z,7.93
2023-04-29T20:46:38.168Z,5.75
2023-04-29T20:49:05.928Z,6.15
2023-04-29T20:51:33.062Z,6.05
2023-04-29T20:54:00.254Z,5.85
2023-04-29T20:56:27.824Z,6.88
2023-04-29T20:58:56.620Z,6.45
2023-04-29T21:01:23.837Z,6.68
2023-04-29T21:03:52.177Z,5.80
2023-04-29T21:06:19.536Z,6.18
2023-04-29T21:08:46.713Z,6.20
2023-04-29T21:11:14.049Z,6.10
2023-04-29T21:13:41.159Z,5.97
2023-04-29T21:16:08.493Z,6.88
2023-04-29T21:18:35.728Z,6.75
2023-04-29T21:21:02.887Z,6.75
2023-04-29T21:23:29.992Z,6.82
2023-04-29T21:25:57.225Z,6.53
2023-04-29T21:28:24.498Z,7.80
2023-04-29T21:30:51.672Z,7.20
2023-04-29T21:33:18.944Z,7.13
2023-04-29T21:35:51.483Z,7.57
2023-04-29T21:38:18.944Z,8.18
2023-04-29T21:40:47.743Z,8.75
2023-04-29T21:43:17.360Z,8.57
2023-04-29T21:45:45.947Z,10.15
2023-04-29T21:48:16.959Z,9.55
2023-04-29T21:50:44.861Z,10.27
2023-04-29T21:53:15.253Z,9.57
2023-04-29T21:55:43.437Z,10.90
2023-04-29T21:58:11.077Z,10.00
2023-04-29T22:00:41.041Z,10.77
2023-04-29T22:03:09.838Z,10.85
2023-04-29T22:05:37.324Z,11.88
2023-04-29T22:08:07.507Z,9.50
2023-04-29T22:10:34.970Z,10.73
2023-04-29T22:13:02.137Z,9.98
2023-04-29T22:15:30.988Z,11.65
2023-04-29T22:17:58.358Z,13.70
2023-04-29T22:20:25.833Z,11.52
2023-04-29T22:22:53.084Z,12.10
2023-04-29T22:25:21.958Z,10.30
2023-04-29T22:27:50.102Z,10.82
2023-04-29T22:30:17.950Z,12.30
2023-04-29T22:32:45.351Z,13.88
2023-04-29T22:35:12.672Z,11.05
2023-04-29T22:37:39.826Z,12.27
2023-04-29T22:40:07.706Z,11.30
2023-04-29T22:42:34.794Z,12.63
2023-04-29T22:45:02.401Z,12.10
2023-04-29T22:47:29.751Z,12.45
2023-04-29T22:49:56.894Z,11.48
2023-04-29T22:52:25.857Z,11.30
2023-04-29T22:54:53.192Z,11.05
2023-04-29T22:57:20.455Z,11.25
2023-04-29T22:59:47.623Z,11.88
2023-04-29T23:02:15.890Z,13.05
2023-04-29T23:04:43.103Z,11.18
2023-04-29T23:07:10.255Z,12.65
2023-04-29T23:09:37.384Z,12.27
2023-04-29T23:12:04.677Z,11.73
2023-04-29T23:14:31.831Z,11.00
2023-04-29T23:16:59.071Z,12.50
2023-04-29T23:19:26.292Z,12.07
2023-04-29T23:21:53.411Z,11.07
2023-04-29T23:24:20.603Z,10.00
2023-04-29T23:26:49.464Z,9.13
2023-04-29T23:29:16.791Z,10.07
2023-04-29T23:31:44.893Z,11.85
2023-04-29T23:34:13.361Z,9.30
2023-04-29T23:36:40.624Z,8.73
2023-04-29T23:39:07.826Z,10.05
2023-04-29T23:41:35.068Z,9.82
2023-04-29T23:44:02.531Z,11.02
2023-04-29T23:46:30.909Z,12.05
2023-04-29T23:48:58.109Z,12.13
2023-04-29T23:51:26.316Z,12.45
2023-04-29T23:53:53.692Z,10.50
2023-04-29T23:56:20.829Z,11.43
2023-04-29T23:58:47.975Z,11.02
